Main page
METAR-TAF:

METAR-TAF

Airports :

Koror, Babeldaob, Palau

Roman Tmetuchl International Airport

latitude: 07-22N, longitude: 134-32E, elevation: 54 m

Current weather observation

The report was made 37 minutes ago, at 01:54 UTC
Wind 10 kt from the Northeast with gusts up to 16 kt
Temperature 31°C
Humidity 66%
Pressure 1009 hPa
Visibility: 24.1 km
Few clouds at a height of 1000 ft
Scattered clouds at a height of 1600 ft
Broken clouds at a height of 12000 ft
Broken clouds at a height of 30000 ft

METAR: PTRO 220154Z 05010G16KT 15SM FEW010 SCT016 BKN120 BKN300 31/24 A2980

Time: 11:31 (02:31 UTC)

Forecast

The report was made 3 hours and 4 minutes ago, at 23:27 UTC
Forecast valid from 22 at 00 UTC to 22 at 24 UTC
Wind 11 kt from the Northeast
Visibility: 10 km
Scattered clouds at a height of 1600 ft
Broken clouds at a height of 12000 ft
showers in vicinity

TAF: PTRO 212327Z 2200/2224 04011KT P6SM VCSH SCT016 BKN120

Weather observations and forecasts of more than 4000 airports (METAR and TAF reports).

The available stations are represented by yellow and red dots on the map.

Hover mouse over dot to see the name of the station.

Then click to see weather observations and forecasts.

To change the map : click on the green buttons with a black cross to zoom in, on the green button with a dash to zoom out, or on the green arrows for adjacent maps.


METAR-TAF: